Time;durP1;ratioP1;P1;durP2;ratioP2;P2;SDS_P1;SDS_P2;PMS_P1;PMS_P2;Temp;Humidity;BMP_temperature;BMP_pressure;BME280_temperature;BME280_humidity;BME280_pressure;Samples;Min_cycle;Max_cycle;Signal;HPM_P1;HPM_P2
2020/12/05 00:01:57;;;;;;;18.62;10.78;;;;;;;6.55;71.70;96872.38;1787022;80;21179;-83
2020/12/05 00:04:26;;;;;;;16.60;9.68;;;;;;;6.65;71.51;96883.08;1786919;80;21577;-78
2020/12/05 00:06:53;;;;;;;19.82;12.05;;;;;;;6.65;71.51;96883.08;1786778;80;21144;-83
2020/12/05 00:09:20;;;;;;;16.00;10.28;;;;;;;6.71;71.35;96906.72;1786875;80;21557;-81
2020/12/05 00:11:48;;;;;;;18.05;9.68;;;;;;;6.75;71.23;96883.28;1786704;80;21128;-82
2020/12/05 00:14:16;;;;;;;17.17;9.33;;;;;;;6.77;71.11;96884.50;1786751;80;21155;-81
2020/12/05 00:16:43;;;;;;;18.20;10.88;;;;;;;6.78;71.15;96883.53;1786980;80;21155;-83
2020/12/05 00:19:12;;;;;;;17.52;9.50;;;;;;;6.76;71.18;96884.96;1786991;80;21104;-81
2020/12/05 00:21:40;;;;;;;18.75;12.15;;;;;;;6.74;70.84;96897.31;1786762;80;21125;-80
2020/12/05 00:24:07;;;;;;;16.55;10.70;;;;;;;6.74;70.84;96897.31;1787187;80;22160;-84
2020/12/05 00:26:35;;;;;;;17.80;12.35;;;;;;;6.82;71.07;96900.73;1787349;80;21593;-84
2020/12/05 00:29:02;;;;;;;19.82;13.93;;;;;;;6.80;70.96;96917.88;1787163;80;21226;-85
2020/12/05 00:31:30;;;;;;;20.15;14.85;;;;;;;6.79;71.07;96923.20;1787106;80;21222;-84
2020/12/05 00:33:58;;;;;;;26.95;17.62;;;;;;;6.77;70.79;96929.87;1786956;80;21136;-80
2020/12/05 00:36:25;;;;;;;26.23;16.82;;;;;;;6.75;70.77;96927.81;1786787;80;21640;-79
2020/12/05 00:38:54;;;;;;;22.98;15.15;;;;;;;6.71;71.04;96925.88;1786842;80;21172;-80
2020/12/05 00:41:21;;;;;;;17.75;12.00;;;;;;;6.69;70.68;96925.62;1786661;80;21155;-80
2020/12/05 00:43:49;;;;;;;25.27;14.58;;;;;;;6.68;70.57;96935.23;1786944;80;21143;-83
2020/12/05 00:46:16;;;;;;;20.97;14.18;;;;;;;6.64;71.07;96939.48;1786770;80;21522;-80
2020/12/05 00:48:44;;;;;;;20.92;14.13;;;;;;;6.49;71.51;96932.20;1786996;80;21162;-84
2020/12/05 00:51:12;;;;;;;18.12;14.10;;;;;;;6.60;71.03;96951.12;1786905;80;21159;-86
2020/12/05 00:53:42;;;;;;;21.30;14.68;;;;;;;6.53;71.33;96963.32;1787535;80;21123;-85
2020/12/05 00:56:10;;;;;;;21.85;14.30;;;;;;;6.51;71.20;96970.88;1787133;80;21143;-80
2020/12/05 00:58:38;;;;;;;23.55;16.87;;;;;;;6.51;71.22;96961.27;1787122;80;21151;-86
2020/12/05 01:01:06;;;;;;;23.00;16.50;;;;;;;6.46;71.33;96964.64;1787007;80;21588;-83
2020/12/05 01:03:33;;;;;;;26.20;18.82;;;;;;;6.45;70.84;96969.98;1787012;80;21171;-92
2020/12/05 01:06:00;;;;;;;26.27;17.82;;;;;;;6.34;71.58;96962.36;1786968;80;21309;-84
2020/12/05 01:08:28;;;;;;;24.15;13.40;;;;;;;6.24;71.35;96954.73;1787419;80;21124;-87
2020/12/05 01:10:55;;;;;;;26.23;17.15;;;;;;;6.19;71.50;96957.66;1787356;80;21561;-85
2020/12/05 01:13:23;;;;;;;20.90;14.78;;;;;;;6.12;72.67;96964.23;1787787;80;21155;-82
2020/12/05 01:15:50;;;;;;;22.30;13.55;;;;;;;6.11;72.61;96965.64;1787803;80;21151;-88
2020/12/05 01:18:17;;;;;;;21.50;11.97;;;;;;;6.09;71.82;96965.27;1787605;80;21132;-80
2020/12/05 01:20:45;;;;;;;19.07;11.70;;;;;;;6.07;72.23;96971.55;1787008;80;21135;-82
2020/12/05 01:23:13;;;;;;;20.32;12.53;;;;;;;6.05;71.95;96967.70;1787074;80;21155;-86
2020/12/05 01:25:40;;;;;;;19.17;13.48;;;;;;;6.06;72.06;96969.86;1787171;80;21176;-79
2020/12/05 01:28:08;;;;;;;23.60;17.00;;;;;;;6.04;72.44;96957.34;1786989;80;21167;-84
2020/12/05 01:30:35;;;;;;;24.07;15.75;;;;;;;6.00;72.98;96965.86;1787041;80;21147;-79
2020/12/05 01:33:03;;;;;;;26.20;18.92;;;;;;;5.97;72.51;96968.63;1786938;80;21600;-80
2020/12/05 01:35:30;;;;;;;23.55;16.87;;;;;;;5.93;73.37;96965.38;1786738;80;21136;-85
2020/12/05 01:37:58;;;;;;;18.87;12.95;;;;;;;5.89;73.26;96956.51;1787137;80;21581;-81
2020/12/05 01:40:25;;;;;;;22.13;14.35;;;;;;;5.85;73.05;96958.48;1786675;80;21176;-80
2020/12/05 01:42:52;;;;;;;21.82;14.13;;;;;;;5.83;73.40;96958.22;1786617;80;21597;-82
2020/12/05 01:45:20;;;;;;;14.47;8.13;;;;;;;5.83;73.43;96951.67;1786663;80;21124;-79
2020/12/05 01:47:47;;;;;;;16.93;11.70;;;;;;;5.81;73.80;96960.08;1786658;80;21522;-80
2020/12/05 01:50:16;;;;;;;14.58;9.73;;;;;;;5.79;73.50;96952.34;1786772;80;21168;-77
2020/12/05 01:52:45;;;;;;;20.37;14.30;;;;;;;5.77;73.60;96949.80;1787583;80;21127;-88
2020/12/05 01:55:13;;;;;;;23.38;12.80;;;;;;;5.74;73.52;96957.01;1787973;80;21183;-84
2020/12/05 01:57:40;;;;;;;25.02;16.23;;;;;;;5.73;73.69;96956.18;1757102;80;21155;-84
2020/12/05 02:00:08;;;;;;;23.32;16.10;;;;;;;5.71;73.75;96953.27;1787541;80;21128;-82
2020/12/05 02:02:39;;;;;;;25.70;16.25;;;;;;;5.67;73.63;96947.88;1787392;80;21172;-84
2020/12/05 02:05:23;;;;;;;25.65;16.27;;;;;;;5.61;73.74;96943.38;1788421;80;21151;-86
2020/12/05 02:08:00;;;;;;;23.67;12.95;;;;;;;5.55;74.35;96944.26;1788377;80;21140;-87
2020/12/05 02:10:31;;;;;;;27.20;15.23;;;;;;;5.51;75.37;96948.84;1788461;80;21570;-82
2020/12/05 02:13:10;;;;;;;22.37;13.57;;;;;;;5.47;74.34;96948.16;1788423;80;21285;-79
2020/12/05 02:15:39;;;;;;;24.70;15.60;;;;;;;5.44;74.62;96966.67;1787666;80;21120;-81
2020/12/05 02:18:10;;;;;;;22.27;14.98;;;;;;;5.39;75.34;96963.97;1787972;80;21124;-80
2020/12/05 02:20:39;;;;;;;24.32;14.05;;;;;;;5.39;75.03;96961.36;1787094;80;21139;-79
2020/12/05 02:23:19;;;;;;;15.40;8.78;;;;;;;5.36;75.24;96968.06;1786936;80;21577;-81
2020/12/05 02:25:52;;;;;;;17.75;12.03;;;;;;;5.33;75.35;96964.36;1788981;80;21267;-80
2020/12/05 02:28:23;;;;;;;23.35;15.93;;;;;;;5.28;75.75;96964.63;1787010;80;21186;-81
2020/12/05 02:30:50;;;;;;;22.50;14.83;;;;;;;5.27;75.60;96967.70;1788770;80;21136;-79
2020/12/05 02:33:19;;;;;;;19.52;13.43;;;;;;;5.25;76.27;96968.25;1756538;80;21151;-81
2020/12/05 02:35:46;;;;;;;18.92;10.10;;;;;;;5.25;75.67;96961.72;1787045;80;21185;-80
2020/12/05 02:38:57;;;;;;;21.00;11.38;;;;;;;5.26;75.77;96961.27;1786804;80;21171;-81
2020/12/05 02:41:24;;;;;;;24.05;15.25;;;;;;;5.25;75.68;96960.41;1788802;80;21151;-79
2020/12/05 02:43:52;;;;;;;25.25;16.60;;;;;;;5.16;76.51;96962.28;1788353;80;21136;-79
2020/12/05 02:46:21;;;;;;;22.05;14.55;;;;;;;5.13;75.77;96963.79;1786894;80;21593;-83
2020/12/05 02:48:48;;;;;;;24.98;15.95;;;;;;;5.09;75.96;96953.14;1786927;80;21542;-80
2020/12/05 02:51:16;;;;;;;24.32;16.48;;;;;;;5.02;76.46;96955.27;1786960;80;21160;-79
2020/12/05 02:53:43;;;;;;;25.17;16.17;;;;;;;4.99;75.98;96948.47;1788655;80;21266;-79
2020/12/05 02:56:19;;;;;;;23.90;14.83;;;;;;;4.99;75.66;96953.69;1788843;80;21522;-80
2020/12/05 02:58:47;;;;;;;25.45;16.93;;;;;;;4.99;76.01;96952.86;1786798;80;21108;-80
2020/12/05 03:01:16;;;;;;;18.02;10.75;;;;;;;4.93;76.16;96943.62;1788589;80;21135;-79
2020/12/05 03:03:46;;;;;;;25.45;16.27;;;;;;;4.92;77.02;96940.62;1788820;80;21156;-77
2020/12/05 03:06:20;;;;;;;26.97;15.98;;;;;;;4.88;77.03;96938.30;1789044;80;21162;-80
2020/12/05 03:08:50;;;;;;;24.07;16.65;;;;;;;4.84;76.28;96947.61;1788759;80;21108;-79
2020/12/05 03:11:17;;;;;;;26.97;18.17;;;;;;;4.77;77.54;96955.92;1788481;80;21183;-80
2020/12/05 03:13:44;;;;;;;29.90;18.60;;;;;;;4.74;77.67;96960.00;1788779;80;21165;-80
2020/12/05 03:16:15;;;;;;;25.25;15.70;;;;;;;4.69;77.84;96952.44;1794090;80;21742;-81
2020/12/05 03:18:43;;;;;;;28.15;17.70;;;;;;;4.65;77.03;96953.09;1792705;80;21135;-84
2020/12/05 03:21:10;;;;;;;23.73;12.88;;;;;;;4.63;77.01;96944.98;1792506;79;21123;-81
2020/12/05 03:23:45;;;;;;;27.00;17.17;;;;;;;4.58;77.39;96948.30;1792399;79;21148;-81
2020/12/05 03:26:07;;;;;;;25.55;16.50;;;;;;;4.56;78.11;96948.41;1794931;79;21262;-80
2020/12/05 03:28:36;;;;;;;24.52;16.20;;;;;;;4.53;77.71;96934.22;1793663;79;21305;-81
2020/12/05 03:31:04;;;;;;;29.07;17.37;;;;;;;4.49;77.92;96931.43;1794553;79;21250;-79
2020/12/05 03:33:34;;;;;;;22.48;11.78;;;;;;;4.47;77.70;96931.98;1794815;80;21191;-81
2020/12/05 03:36:01;;;;;;;18.23;11.20;;;;;;;4.43;78.08;96927.41;1794850;80;21152;-79
2020/12/05 03:38:30;;;;;;;22.62;13.28;;;;;;;4.41;77.99;96931.04;1794481;79;21273;-79
2020/12/05 03:40:57;;;;;;;27.45;17.37;;;;;;;4.35;78.37;96931.75;1794476;79;21355;-80
2020/12/05 03:43:27;;;;;;;25.40;16.20;;;;;;;4.34;79.59;96940.98;1795961;80;21250;-81
2020/12/05 03:45:54;;;;;;;15.28;9.20;;;;;;;4.37;78.48;96939.48;1795752;80;21303;-81
2020/12/05 03:48:54;;;;;;;26.02;14.78;;;;;;;4.40;79.06;96949.75;1795268;79;21171;-79
2020/12/05 03:51:22;;;;;;;27.25;17.60;;;;;;;4.45;78.61;96948.19;1795814;80;21286;-80
2020/12/05 03:53:51;;;;;;;26.50;16.15;;;;;;;4.45;79.55;96945.13;1796289;79;21302;-82
2020/12/05 03:56:23;;;;;;;19.73;11.30;;;;;;;4.50;78.39;96954.00;1796237;80;21108;-79
2020/12/05 03:58:53;;;;;;;24.87;15.63;;;;;;;4.51;79.06;96951.73;1795340;79;21266;-81
2020/12/05 04:01:22;;;;;;;25.57;15.65;;;;;;;4.55;78.49;96959.78;1792706;79;21123;-86
2020/12/05 04:03:50;;;;;;;24.60;16.05;;;;;;;4.56;78.75;96966.69;1795994;80;21550;-79
2020/12/05 04:06:17;;;;;;;23.22;14.43;;;;;;;4.59;78.80;96968.27;1797753;79;21275;-78
2020/12/05 04:08:45;;;;;;;17.10;9.23;;;;;;;4.61;78.17;96965.94;1797157;79;21760;-79
2020/12/05 04:11:13;;;;;;;20.43;14.05;;;;;;;4.63;78.04;96971.91;1797817;79;21162;-80
2020/12/05 04:13:41;;;;;;;20.05;11.05;;;;;;;4.65;78.21;96975.28;1797318;79;21305;-79
2020/12/05 04:16:09;;;;;;;26.73;16.77;;;;;;;4.71;77.98;96979.31;1795017;79;21156;-83
2020/12/05 04:18:36;;;;;;;27.67;15.32;;;;;;;4.73;78.31;96974.84;1793829;80;21120;-80
2020/12/05 04:21:06;;;;;;;26.20;13.60;;;;;;;4.81;78.40;96978.30;1794586;80;21275;-84
2020/12/05 04:23:33;;;;;;;21.85;14.75;;;;;;;4.88;78.46;96978.78;1792338;80;21131;-81
2020/12/05 04:26:01;;;;;;;17.20;9.43;;;;;;;4.94;78.37;96993.62;1791960;79;21278;-80
2020/12/05 04:28:28;;;;;;;24.00;16.15;;;;;;;5.00;78.38;96993.73;1792120;79;21182;-80
2020/12/05 04:30:55;;;;;;;15.53;7.90;;;;;;;5.04;78.17;96995.70;1792054;80;21148;-80
2020/12/05 04:33:23;;;;;;;27.52;15.55;;;;;;;5.07;78.09;97004.19;1791245;79;21179;-84
2020/12/05 04:35:50;;;;;;;21.93;10.55;;;;;;;5.05;78.02;97006.05;1786729;80;21141;-83
2020/12/05 04:38:17;;;;;;;24.67;15.10;;;;;;;5.07;78.01;97007.25;1787094;80;21141;-85
2020/12/05 04:40:45;;;;;;;22.00;11.50;;;;;;;5.06;77.95;97004.29;1786784;80;21630;-80
2020/12/05 04:43:13;;;;;;;21.77;13.90;;;;;;;5.06;77.87;97008.20;1787197;80;21107;-80
2020/12/05 04:45:42;;;;;;;21.73;13.90;;;;;;;5.04;77.91;96993.08;1788519;80;21256;-87
2020/12/05 04:48:10;;;;;;;23.95;16.37;;;;;;;5.06;78.22;97002.98;1757956;80;21284;-82
2020/12/05 04:50:39;;;;;;;25.30;16.15;;;;;;;5.05;77.75;97002.12;1789353;80;21729;-82
2020/12/05 04:53:17;;;;;;;22.95;15.95;;;;;;;5.06;77.56;97002.50;1787227;80;21137;-86
2020/12/05 04:55:45;;;;;;;29.65;17.32;;;;;;;5.03;77.58;97014.91;1789569;80;21162;-83
2020/12/05 04:58:21;;;;;;;25.50;17.12;;;;;;;5.01;77.33;97011.09;1789621;80;21322;-84
2020/12/05 05:00:57;;;;;;;25.52;14.95;;;;;;;5.02;77.35;97010.13;1786710;80;21133;-86
2020/12/05 05:03:32;;;;;;;27.85;16.75;;;;;;;5.05;77.26;97019.11;1786906;80;21567;-81
2020/12/05 05:06:00;;;;;;;28.17;16.75;;;;;;;5.07;77.09;97019.00;1805602;79;21120;-87
2020/12/05 05:08:27;;;;;;;21.52;12.45;;;;;;;5.04;77.11;97011.38;1818910;78;21144;-80
2020/12/05 05:11:12;;;;;;;19.48;13.62;;;;;;;5.06;77.30;97013.44;1820369;79;21109;-80
2020/12/05 05:13:59;;;;;;;27.25;18.37;;;;;;;5.03;77.30;97019.66;1819009;79;21144;-82
2020/12/05 05:16:29;;;;;;;23.65;15.68;;;;;;;4.98;77.57;97017.80;1820440;79;21151;-79
2020/12/05 05:19:01;;;;;;;25.25;16.23;;;;;;;4.94;77.35;97019.75;1820840;78;21137;-88
2020/12/05 05:21:39;;;;;;;19.98;11.90;;;;;;;4.91;78.04;97016.48;1789616;79;21110;-79
2020/12/05 05:24:21;;;;;;;26.37;15.88;;;;;;;4.87;78.03;97026.27;1789036;80;21283;-80
2020/12/05 05:27:07;;;;;;;20.50;12.37;;;;;;;4.83;77.99;97024.27;1786801;80;21118;-83
2020/12/05 05:29:43;;;;;;;27.25;18.77;;;;;;;4.83;77.90;97022.14;1786824;80;21603;-84
2020/12/05 05:32:25;;;;;;;;;;;;;;;4.71;77.95;97022.39;1791882;80;21150;-81
2020/12/05 05:34:52;;;;;;;23.70;15.13;;;;;;;4.67;77.48;97023.48;1789551;80;20131;-85
2020/12/05 05:37:23;;;;;;;22.62;14.20;;;;;;;4.61;77.37;97026.46;1760867;80;21130;-81
2020/12/05 05:39:55;;;;;;;23.90;14.05;;;;;;;4.61;77.32;97026.46;1789607;80;21154;-83
2020/12/05 05:42:34;;;;;;;18.20;11.40;;;;;;;4.61;77.46;97024.68;1790822;80;21285;-78
2020/12/05 05:45:24;;;;;;;21.50;13.28;;;;;;;4.63;77.64;97028.53;1789566;80;21096;-78
2020/12/05 05:48:02;;;;;;;26.45;12.80;;;;;;;4.68;77.78;97030.39;1759602;80;21151;-80
2020/12/05 05:50:37;;;;;;;18.05;10.68;;;;;;;4.75;77.94;97026.97;1788959;80;21151;-80
2020/12/05 05:53:10;;;;;;;21.40;13.10;;;;;;;4.80;78.37;97023.17;1786415;80;21104;-85
2020/12/05 05:55:44;;;;;;;18.75;9.83;;;;;;;4.87;78.00;97021.49;1788536;80;21312;-78
2020/12/05 05:58:13;;;;;;;15.03;9.28;;;;;;;4.94;78.19;97018.89;1788780;80;21124;-80
2020/12/05 06:00:45;;;;;;;18.77;10.98;;;;;;;5.01;78.29;97013.70;1787153;80;21553;-80
2020/12/05 06:03:25;;;;;;;17.20;11.70;;;;;;;5.06;78.00;97022.58;1786679;80;21159;-81
2020/12/05 06:05:56;;;;;;;22.45;13.20;;;;;;;5.11;77.92;97025.75;1786809;80;21143;-79
2020/12/05 06:08:27;;;;;;;18.92;11.40;;;;;;;5.15;77.86;97019.42;1797689;79;21541;-82
2020/12/05 06:11:04;;;;;;;17.95;11.12;;;;;;;5.22;77.75;97019.42;1797675;80;21193;-78
2020/12/05 06:13:32;;;;;;;22.22;14.20;;;;;;;5.30;78.03;97021.55;1797610;80;21340;-82
2020/12/05 06:16:02;;;;;;;21.10;12.73;;;;;;;5.30;77.87;97014.57;1791749;80;21132;-82
2020/12/05 06:18:31;;;;;;;17.65;11.93;;;;;;;5.41;77.52;97023.06;1785345;80;21582;-80
2020/12/05 06:20:59;;;;;;;21.45;14.75;;;;;;;5.48;77.43;97028.77;1786265;80;21625;-82
2020/12/05 06:23:46;;;;;;;19.73;11.30;;;;;;;5.47;77.16;97021.84;1785455;80;21554;-82
2020/12/05 06:26:29;;;;;;;21.45;11.60;;;;;;;5.46;77.10;97017.10;1758220;80;21131;-89
2020/12/05 06:29:02;;;;;;;14.98;9.33;;;;;;;5.44;77.19;97020.72;1785793;80;21109;-88
2020/12/05 06:31:45;;;;;;;23.18;14.45;;;;;;;5.41;77.09;97029.59;1786901;80;21611;-89
2020/12/05 06:34:36;;;;;;;24.35;14.68;;;;;;;5.36;77.13;97034.72;1787045;80;21136;-82
2020/12/05 06:37:04;;;;;;;21.50;15.13;;;;;;;5.29;77.30;97042.94;1780330;80;21155;-78
2020/12/05 06:39:31;;;;;;;23.55;13.93;;;;;;;5.29;77.19;97048.17;1790308;80;21587;-85
2020/12/05 06:41:59;;;;;;;21.00;14.23;;;;;;;5.33;77.36;97055.84;1790614;80;21256;-83
2020/12/05 06:44:36;;;;;;;13.68;7.17;;;;;;;5.37;77.40;97062.09;1790288;80;21133;-87
2020/12/05 06:47:08;;;;;;;21.55;11.80;;;;;;;5.46;77.54;97048.92;1791326;80;21190;-80
2020/12/05 06:49:41;;;;;;;22.30;14.73;;;;;;;5.54;77.48;97055.83;1790996;80;21311;-81
2020/12/05 06:52:30;;;;;;;16.70;9.38;;;;;;;5.61;77.27;97053.21;1790750;80;21121;-80
2020/12/05 06:55:15;;;;;;;24.70;16.02;;;;;;;5.70;77.03;97057.53;1790812;80;21138;-80
2020/12/05 06:57:44;;;;;;;25.52;17.05;;;;;;;5.73;76.90;97063.41;1790453;80;21347;-80
2020/12/05 07:00:17;;;;;;;22.05;14.50;;;;;;;5.79;76.65;97066.13;1743085;82;21201;-82
2020/12/05 07:02:55;;;;;;;22.48;14.63;;;;;;;5.83;76.74;97071.53;1743163;82;21333;-81
2020/12/05 07:05:38;;;;;;;;;;;;;;;5.91;76.70;97071.89;1745666;81;21235;-80
2020/12/05 07:08:39;;;;;;;13.45;8.68;;;;;;;6.00;76.63;97074.45;1739579;82;20235;-88
2020/12/05 07:11:15;;;;;;;17.62;8.80;;;;;;;6.11;76.39;97076.87;1739180;82;21155;-85
2020/12/05 07:13:51;;;;;;;17.62;10.98;;;;;;;6.20;76.29;97082.35;1739375;82;21616;-82
2020/12/05 07:16:27;;;;;;;20.40;13.25;;;;;;;6.33;75.95;97086.34;1736881;82;21195;-87
2020/12/05 07:19:01;;;;;;;17.92;10.78;;;;;;;6.46;75.60;97079.03;1787134;80;21115;-83
2020/12/05 07:21:30;;;;;;;21.70;14.00;;;;;;;6.60;75.33;97084.20;1786816;80;21166;-88
2020/12/05 07:23:58;;;;;;;23.02;16.07;;;;;;;6.72;75.09;97094.39;1787789;80;21553;-84
2020/12/05 07:26:26;;;;;;;22.37;14.60;;;;;;;6.79;74.77;97095.66;1792144;80;21129;-82
2020/12/05 07:28:56;;;;;;;22.22;12.88;;;;;;;6.85;74.56;97091.32;1791773;80;21772;-82
2020/12/05 07:31:24;;;;;;;18.90;10.40;;;;;;;6.97;74.66;97094.09;1792012;80;21212;-83
2020/12/05 07:33:53;;;;;;;25.60;13.75;;;;;;;7.09;74.19;97092.43;1792161;80;21553;-82
2020/12/05 07:36:21;;;;;;;22.25;13.98;;;;;;;7.20;74.31;97087.32;1791979;80;21565;-83
2020/12/05 07:38:48;;;;;;;22.73;15.18;;;;;;;7.36;73.56;97092.38;1790371;80;21874;-81
2020/12/05 07:41:19;;;;;;;28.02;15.10;;;;;;;7.46;73.05;97090.82;1786810;80;21144;-81
2020/12/05 07:43:48;;;;;;;23.55;15.68;;;;;;;7.66;73.45;97094.70;1786775;80;21545;-81
2020/12/05 07:46:16;;;;;;;14.68;9.85;;;;;;;7.86;72.66;97100.36;1756567;80;21151;-83
2020/12/05 07:48:44;;;;;;;22.67;15.53;;;;;;;7.96;72.81;97091.36;1786775;80;21201;-88
2020/12/05 07:51:14;;;;;;;19.95;11.28;;;;;;;8.08;71.01;97106.27;1786783;80;21168;-81
2020/12/05 07:53:44;;;;;;;26.40;15.60;;;;;;;8.17;70.71;97106.08;1786707;80;21166;-78
2020/12/05 07:56:19;;;;;;;25.72;18.17;;;;;;;8.21;70.52;97111.98;1790783;79;21140;-79
2020/12/05 07:58:53;;;;;;;20.47;14.07;;;;;;;8.20;70.74;97117.69;1792583;79;21128;-83
2020/12/05 08:01:41;;;;;;;14.03;8.23;;;;;;;8.20;70.69;97114.23;1792262;80;21305;-83
2020/12/05 08:04:42;;;;;;;17.85;11.20;;;;;;;8.23;70.29;97122.73;1792324;80;21144;-86
2020/12/05 08:07:18;;;;;;;22.95;13.93;;;;;;;8.22;69.97;97124.98;1791988;80;21172;-84
2020/12/05 08:09:45;;;;;;;23.95;14.55;;;;;;;8.19;70.25;97123.88;1784770;80;21640;-80
2020/12/05 08:12:18;;;;;;;27.87;17.75;;;;;;;8.23;70.31;97127.98;1798069;80;21151;-81
2020/12/05 08:14:46;;;;;;;19.70;8.58;;;;;;;8.23;69.88;97123.19;1798264;80;21183;-82
2020/12/05 08:17:13;;;;;;;21.55;13.08;;;;;;;8.31;69.60;97141.87;1787918;80;21629;-82
2020/12/05 08:19:42;;;;;;;20.15;12.35;;;;;;;8.29;69.48;97133.28;1785181;80;21197;-80
2020/12/05 08:22:10;;;;;;;22.70;14.58;;;;;;;8.30;69.69;97138.91;1785548;80;21152;-82
2020/12/05 08:24:50;;;;;;;17.42;9.95;;;;;;;8.38;70.35;97137.03;1785323;80;21562;-83
2020/12/05 08:27:19;;;;;;;26.15;16.10;;;;;;;8.51;69.86;97140.97;1758495;81;21686;-82
2020/12/05 08:29:51;;;;;;;23.40;12.58;;;;;;;8.57;69.56;97147.12;1758935;81;21186;-80
2020/12/05 08:32:23;;;;;;;25.17;15.98;;;;;;;8.67;69.53;97140.26;1758699;81;21138;-81
2020/12/05 08:35:09;;;;;;;19.35;12.28;;;;;;;8.75;69.55;97140.54;1758790;81;21146;-82
2020/12/05 08:37:43;;;;;;;20.88;11.95;;;;;;;8.88;69.49;97133.06;1749533;81;21706;-81
2020/12/05 08:40:18;;;;;;;12.70;9.93;;;;;;;9.00;69.34;97134.80;1759117;80;21300;-86
2020/12/05 08:42:48;;;;;;;16.07;8.38;;;;;;;9.15;68.79;97143.81;1742672;80;21123;-84
2020/12/05 08:45:18;;;;;;;18.45;12.88;;;;;;;9.25;68.36;97146.62;1781000;80;21163;-84
2020/12/05 08:47:51;;;;;;;19.27;12.40;;;;;;;9.34;67.76;97152.02;1787996;80;21577;-80
2020/12/05 08:50:35;;;;;;;14.58;10.63;;;;;;;9.44;68.00;97156.14;1769980;80;21173;-84
2020/12/05 08:53:03;;;;;;;10.93;6.53;;;;;;;9.54;68.11;97149.70;1789926;80;21107;-85
2020/12/05 08:55:32;;;;;;;19.60;13.10;;;;;;;9.66;66.74;97137.39;1768901;80;21268;-79
2020/12/05 08:58:03;;;;;;;16.60;11.43;;;;;;;9.62;67.01;97142.06;1781381;79;21215;-84
2020/12/05 09:00:34;;;;;;;21.87;15.80;;;;;;;9.58;66.26;97143.27;1739359;82;21204;-81
2020/12/05 09:03:02;;;;;;;25.20;13.40;;;;;;;9.55;67.08;97142.66;1730368;82;21171;-81
2020/12/05 09:05:30;;;;;;;30.05;15.35;;;;;;;9.60;66.79;97136.09;1727501;83;21237;-81
2020/12/05 09:08:00;;;;;;;22.95;15.20;;;;;;;9.64;66.96;97128.31;1728705;82;21167;-83
2020/12/05 09:10:29;;;;;;;17.90;13.43;;;;;;;9.72;67.05;97140.90;1739307;82;21159;-82
2020/12/05 09:13:06;;;;;;;22.07;13.65;;;;;;;9.79;66.58;97132.06;1733708;82;23667;-83
2020/12/05 09:15:35;;;;;;;15.18;9.58;;;;;;;9.88;66.61;97131.82;1735066;83;21483;-87
2020/12/05 09:18:03;;;;;;;14.75;9.95;;;;;;;9.97;66.20;97130.64;1734896;83;21162;-84
2020/12/05 09:20:31;;;;;;;11.93;6.58;;;;;;;10.08;66.84;97124.54;1734618;82;21155;-82
2020/12/05 09:23:00;;;;;;;9.40;7.42;;;;;;;10.20;66.29;97127.18;1710310;84;21155;-81
2020/12/05 09:25:39;;;;;;;13.95;10.58;;;;;;;10.30;66.09;97121.05;1710223;84;21565;-85
2020/12/05 09:28:13;;;;;;;17.87;11.00;;;;;;;10.38;65.22;97127.08;1710968;82;21163;-84
2020/12/05 09:30:41;;;;;;;16.62;12.35;;;;;;;10.46;65.62;97123.81;1710455;82;21187;-81
2020/12/05 09:33:15;;;;;;;16.02;11.63;;;;;;;10.50;65.11;97123.94;1709888;84;21182;-80
2020/12/05 09:35:44;;;;;;;9.40;7.37;;;;;;;10.54;65.07;97128.48;1710279;84;21162;-81
2020/12/05 09:38:12;;;;;;;16.27;10.48;;;;;;;10.58;64.92;97114.94;1716644;82;21152;-82
2020/12/05 09:40:39;;;;;;;21.23;13.88;;;;;;;10.60;65.09;97106.90;1739378;82;21536;-80
2020/12/05 09:43:07;;;;;;;16.87;12.03;;;;;;;10.63;64.56;97114.08;1734354;82;21606;-81
2020/12/05 09:45:34;;;;;;;16.67;11.43;;;;;;;10.72;64.82;97112.98;1736916;82;21133;-81
2020/12/05 09:48:03;;;;;;;15.38;11.00;;;;;;;10.77;64.25;97106.38;1737569;82;21167;-80
2020/12/05 09:50:32;;;;;;;15.18;10.13;;;;;;;10.81;64.70;97101.69;1739509;82;21139;-84
2020/12/05 09:52:59;;;;;;;17.87;11.68;;;;;;;10.87;63.17;97114.86;1739457;82;21164;-83
2020/12/05 09:55:28;;;;;;;15.28;10.18;;;;;;;10.92;64.08;97114.84;1739495;82;21204;-86
2020/12/05 09:57:56;;;;;;;16.17;9.83;;;;;;;11.00;64.35;97108.95;1737955;82;21135;-83
2020/12/05 10:00:23;;;;;;;12.93;7.45;;;;;;;11.07;64.19;97111.93;1722991;83;21168;-83
2020/12/05 10:02:51;;;;;;;14.50;11.30;;;;;;;11.12;63.59;97108.91;1695025;83;21565;-83
2020/12/05 10:05:18;;;;;;;16.25;11.57;;;;;;;11.08;62.09;97102.56;1713255;84;21163;-84
2020/12/05 10:07:46;;;;;;;16.50;10.53;;;;;;;11.12;63.25;97113.69;1681366;84;21169;-81
2020/12/05 10:10:14;;;;;;;17.15;13.15;;;;;;;11.14;62.93;97106.50;1712595;82;21159;-80
2020/12/05 10:12:44;;;;;;;20.20;12.88;;;;;;;11.16;63.54;97104.58;1742260;82;21167;-78
2020/12/05 10:15:14;;;;;;;18.82;11.38;;;;;;;11.18;63.17;97111.86;1710977;82;21139;-80
2020/12/05 10:17:43;;;;;;;11.55;8.35;;;;;;;11.18;62.99;97103.95;1729797;81;21171;-80
2020/12/05 10:20:11;;;;;;;16.80;11.68;;;;;;;11.20;62.73;97098.06;1769058;80;21176;-83
2020/12/05 10:22:38;;;;;;;18.40;12.47;;;;;;;11.15;62.66;97102.90;1767516;80;21262;-82
2020/12/05 10:25:06;;;;;;;20.27;12.82;;;;;;;11.15;62.85;97109.96;1769966;79;21155;-79
2020/12/05 10:27:33;;;;;;;13.70;9.63;;;;;;;11.16;62.14;97105.89;1787623;79;21133;-80
2020/12/05 10:30:04;;;;;;;15.63;10.48;;;;;;;11.18;62.29;97107.91;1785607;80;21143;-84
2020/12/05 10:32:31;;;;;;;15.63;11.75;;;;;;;11.16;61.84;97105.04;1786918;80;21124;-86
2020/12/05 10:34:59;;;;;;;21.25;11.55;;;;;;;11.14;62.10;97107.81;1787036;80;21566;-84
2020/12/05 10:37:26;;;;;;;18.25;12.00;;;;;;;11.15;62.33;97103.36;1814078;79;21135;-84
2020/12/05 10:39:53;;;;;;;13.70;9.30;;;;;;;11.17;62.39;97106.72;1818725;79;21136;-84
2020/12/05 10:42:21;;;;;;;21.60;14.00;;;;;;;11.19;62.15;97111.39;1818925;79;21320;-82
2020/12/05 10:44:48;;;;;;;16.02;10.82;;;;;;;11.23;61.92;97108.38;1815392;78;21143;-83
2020/12/05 10:47:16;;;;;;;12.05;8.78;;;;;;;11.31;61.99;97109.07;1788139;79;21137;-81
2020/12/05 10:49:43;;;;;;;13.85;9.80;;;;;;;11.37;62.10;97103.73;1786654;80;21600;-83
2020/12/05 10:52:11;;;;;;;12.18;8.65;;;;;;;11.44;61.56;97110.66;1786452;80;21184;-82
2020/12/05 10:54:38;;;;;;;21.10;13.68;;;;;;;11.45;61.99;97096.50;1786556;80;21144;-84
2020/12/05 10:57:05;;;;;;;12.68;8.83;;;;;;;11.49;62.22;97097.44;1810049;79;21584;-83
2020/12/05 10:59:35;;;;;;;14.10;10.88;;;;;;;11.53;61.79;97098.87;1793949;79;21151;-83
2020/12/05 11:02:03;;;;;;;21.80;12.50;;;;;;;11.56;61.57;97100.41;1792386;79;21131;-84
2020/12/05 11:04:31;;;;;;;17.42;10.43;;;;;;;11.56;60.70;97099.91;1792049;79;21282;-84
2020/12/05 11:06:58;;;;;;;13.43;8.88;;;;;;;11.61;61.46;97097.37;1813355;79;21120;-85
2020/12/05 11:09:26;;;;;;;16.55;11.75;;;;;;;11.60;60.59;97105.77;1788482;79;21140;-82
2020/12/05 11:11:53;;;;;;;18.52;11.12;;;;;;;11.61;61.05;97095.56;1786898;80;21615;-84
2020/12/05 11:14:20;;;;;;;11.45;7.95;;;;;;;11.65;61.14;97090.85;1786845;80;21154;-81
2020/12/05 11:16:49;;;;;;;17.00;11.85;;;;;;;11.67;60.97;97106.09;1788217;79;21232;-83
2020/12/05 11:19:17;;;;;;;17.67;10.93;;;;;;;11.62;60.15;97093.78;1818441;79;21173;-84
2020/12/05 11:21:45;;;;;;;15.40;10.28;;;;;;;11.69;60.63;97093.60;1818904;79;21530;-82
2020/12/05 11:24:13;;;;;;;9.03;6.30;;;;;;;11.75;60.93;97088.28;1819102;79;21155;-81
2020/12/05 11:26:40;;;;;;;17.37;12.20;;;;;;;11.77;60.26;97093.78;1818765;78;21535;-78
2020/12/05 11:29:07;;;;;;;19.95;13.80;;;;;;;11.78;60.95;97094.64;1818345;79;21189;-80
2020/12/05 11:31:36;;;;;;;13.58;8.30;;;;;;;11.82;60.36;97087.64;1798121;79;21139;-81
2020/12/05 11:34:04;;;;;;;10.38;7.15;;;;;;;11.79;59.96;97087.04;1791875;79;21129;-83
2020/12/05 11:36:32;;;;;;;15.83;12.53;;;;;;;11.79;60.21;97094.96;1809485;79;21175;-84
2020/12/05 11:39:01;;;;;;;18.07;13.58;;;;;;;11.67;60.24;97075.73;1790108;79;21161;-79
2020/12/05 11:41:29;;;;;;;17.25;11.83;;;;;;;11.58;60.35;97087.92;1795371;79;21143;-82